Time;durP1;ratioP1;P1;durP2;ratioP2;P2;SDS_P1;SDS_P2;PMS_P1;PMS_P2;Temp;Humidity;BMP_temperature;BMP_pressure;BME280_temperature;BME280_humidity;BME280_pressure;Samples;Min_cycle;Max_cycle;Signal;HPM_P1;HPM_P2
2021/07/14 00:01:32;;;;;;;11.45;10.15;;;22.40;99.90;;;;;;5062077;28;20090;-58
2021/07/14 00:03:58;;;;;;;11.57;10.45;;;22.40;99.90;;;;;;5056573;28;20375;-58
2021/07/14 00:06:23;;;;;;;11.73;10.52;;;22.40;99.90;;;;;;5059688;28;20029;-58
2021/07/14 00:08:50;;;;;;;11.43;10.27;;;22.50;99.90;;;;;;5052080;28;20036;-59
2021/07/14 00:11:15;;;;;;;11.20;10.10;;;22.50;99.90;;;;;;5059152;28;20012;-59
2021/07/14 00:14:02;;;;;;;11.77;10.60;;;22.40;99.90;;;;;;5059139;28;20040;-59
2021/07/14 00:22:07;;;;;;;11.65;10.43;;;22.40;99.90;;;;;;5063454;28;20047;-59
2021/07/14 00:24:33;;;;;;;12.00;10.80;;;22.50;99.90;;;;;;5055488;28;20009;-59
2021/07/14 00:26:58;;;;;;;12.90;11.60;;;22.40;99.90;;;;;;5064146;28;20032;-59
2021/07/14 00:29:23;;;;;;;11.20;10.20;;;22.50;99.90;;;;;;5056232;28;20231;-59
2021/07/14 00:31:49;;;;;;;11.27;10.18;;;22.40;99.90;;;;;;5056687;28;20521;-59
2021/07/14 00:34:14;;;;;;;13.00;11.48;;;22.40;99.90;;;;;;5062340;28;20028;-58
2021/07/14 00:36:40;;;;;;;13.77;11.43;;;22.40;99.90;;;;;;5060313;28;20100;-57
2021/07/14 00:39:05;;;;;;;13.43;11.05;;;22.40;99.90;;;;;;5061322;28;20037;-58
2021/07/14 00:41:31;;;;;;;13.27;11.98;;;22.40;99.90;;;;;;5064222;28;20416;-58
2021/07/14 00:43:56;;;;;;;12.25;11.05;;;22.40;99.90;;;;;;5067016;28;20024;-58
2021/07/14 00:46:27;;;;;;;12.40;11.18;;;22.40;99.90;;;;;;5059776;28;20025;-58
2021/07/14 00:48:56;;;;;;;13.15;11.48;;;22.40;99.90;;;;;;5060133;28;20379;-58
2021/07/14 00:51:21;;;;;;;13.00;11.70;;;22.30;99.90;;;;;;5065206;28;20033;-58
2021/07/14 00:53:50;;;;;;;12.07;10.88;;;22.30;99.90;;;;;;5059263;28;20013;-58
2021/07/14 00:56:15;;;;;;;16.15;13.60;;;22.30;99.90;;;;;;5066279;28;20108;-58
2021/07/14 00:58:41;;;;;;;16.35;12.88;;;22.30;99.90;;;;;;5058140;28;20171;-58
2021/07/14 01:01:07;;;;;;;14.23;12.73;;;22.30;99.90;;;;;;5067244;28;20033;-58
2021/07/14 01:03:39;;;;;;;14.15;12.65;;;22.30;99.90;;;;;;5040343;28;20028;-58
2021/07/14 01:06:07;;;;;;;13.00;11.80;;;22.30;99.90;;;;;;5061400;28;20394;-58
2021/07/14 01:08:59;;;;;;;14.27;12.77;;;22.30;99.90;;;;;;5062055;28;20017;-58
2021/07/14 01:11:29;;;;;;;13.25;11.45;;;22.30;99.90;;;;;;5064135;28;20063;-58
2021/07/14 01:14:09;;;;;;;13.60;12.25;;;22.30;99.90;;;;;;5061005;28;20132;-58
2021/07/14 01:16:42;;;;;;;13.70;12.30;;;22.30;99.90;;;;;;5060755;28;20028;-58
2021/07/14 01:19:36;;;;;;;13.55;12.15;;;22.30;99.90;;;;;;5059064;28;20040;-58
2021/07/14 01:22:14;;;;;;;13.60;12.27;;;22.20;99.90;;;;;;5066132;28;20477;-58
2021/07/14 01:24:59;;;;;;;12.93;11.63;;;22.20;99.90;;;;;;5058244;28;20482;-58
2021/07/14 01:27:26;;;;;;;14.48;12.98;;;22.20;99.90;;;;;;5052546;28;20078;-58
2021/07/14 01:29:56;;;;;;;13.95;12.38;;;22.20;99.90;;;;;;5058845;28;20392;-58
2021/07/14 01:32:30;;;;;;;;;;;22.20;99.90;;;;;;5048357;28;20021;-58
2021/07/14 01:35:04;;;;;;;14.13;12.00;;;22.20;99.90;;;;;;5059860;28;19967;-58
2021/07/14 01:37:32;;;;;;;14.48;12.98;;;22.20;99.90;;;;;;5062466;28;20040;-58
2021/07/14 01:39:59;;;;;;;14.10;12.70;;;22.10;99.90;;;;;;5058904;28;20058;-58
2021/07/14 01:42:28;;;;;;;14.40;12.88;;;22.10;99.90;;;;;;5064590;28;20036;-59
2021/07/14 01:44:56;;;;;;;15.23;13.63;;;22.00;99.90;;;;;;5060880;28;20015;-58
2021/07/14 01:47:23;;;;;;;15.38;13.57;;;22.00;99.90;;;;;;5060859;28;20031;-59
2021/07/14 01:49:50;;;;;;;15.80;13.32;;;21.90;99.90;;;;;;5060719;28;20036;-59
2021/07/14 01:52:19;;;;;;;15.57;13.95;;;21.90;99.90;;;;;;5062217;28;20024;-58
2021/07/14 01:54:47;;;;;;;14.38;12.52;;;21.90;99.90;;;;;;5040450;28;20026;-58
2021/07/14 01:57:14;;;;;;;14.55;13.15;;;21.90;99.90;;;;;;5052181;28;20016;-58
2021/07/14 01:59:41;;;;;;;15.73;14.10;;;21.90;99.90;;;;;;5041614;28;20025;-58
2021/07/14 02:02:09;;;;;;;14.35;12.88;;;21.80;99.90;;;;;;5033224;28;20020;-58
2021/07/14 02:04:38;;;;;;;16.35;14.68;;;21.80;99.90;;;;;;5035824;28;20475;-58
2021/07/14 02:07:05;;;;;;;15.35;13.75;;;21.80;99.90;;;;;;5045804;28;20029;-58
2021/07/14 02:09:34;;;;;;;16.50;14.10;;;21.70;99.90;;;;;;5045035;28;20423;-58
2021/07/14 02:12:01;;;;;;;15.82;14.07;;;21.70;99.90;;;;;;5036121;28;20036;-58
2021/07/14 02:14:32;;;;;;;15.55;13.50;;;21.70;99.90;;;;;;5046194;28;20070;-58
2021/07/14 02:17:02;;;;;;;16.60;14.80;;;21.60;99.90;;;;;;5051288;28;20025;-58
2021/07/14 02:19:33;;;;;;;16.00;14.38;;;21.60;99.90;;;;;;5058098;28;20025;-58
2021/07/14 02:22:01;;;;;;;19.40;15.05;;;21.60;99.90;;;;;;5065201;28;20032;-58
2021/07/14 02:24:26;;;;;;;16.48;14.55;;;21.60;99.90;;;;;;5057155;28;20930;-58
2021/07/14 02:26:54;;;;;;;15.68;13.98;;;21.60;99.90;;;;;;5065913;28;20016;-58
2021/07/14 02:29:19;;;;;;;17.25;15.02;;;21.50;99.90;;;;;;5058189;28;20028;-59
2021/07/14 02:31:45;;;;;;;19.55;15.70;;;21.50;99.90;;;;;;5057885;28;20115;-59
2021/07/14 02:34:10;;;;;;;16.80;15.07;;;21.50;99.90;;;;;;5061878;28;20025;-59
2021/07/14 02:36:38;;;;;;;16.77;15.07;;;21.50;99.90;;;;;;5057720;28;20100;-59
2021/07/14 02:39:06;;;;;;;17.02;15.23;;;21.50;99.90;;;;;;5061121;28;20022;-59
2021/07/14 02:41:49;;;;;;;17.38;15.55;;;21.40;99.90;;;;;;5062142;28;20023;-59
2021/07/14 02:44:19;;;;;;;18.30;14.68;;;21.40;99.90;;;;;;5064900;28;20021;-59
2021/07/14 02:46:48;;;;;;;;;;;21.40;99.90;;;;;;5057892;28;20723;-59
2021/07/14 02:49:17;;;;;;;18.15;16.13;;;21.30;99.90;;;;;;5060594;28;19905;-58
2021/07/14 02:51:45;;;;;;;14.98;13.48;;;21.30;99.90;;;;;;5060007;28;20017;-59
2021/07/14 02:54:18;;;;;;;17.08;15.27;;;21.30;99.90;;;;;;5059184;28;20029;-58
2021/07/14 02:56:47;;;;;;;17.90;16.13;;;21.20;99.90;;;;;;5059882;28;20061;-58
2021/07/14 02:59:15;;;;;;;18.02;15.15;;;21.20;99.90;;;;;;5059964;28;20501;-58
2021/07/14 03:01:42;;;;;;;20.58;16.75;;;21.20;99.90;;;;;;5060388;28;20059;-59
2021/07/14 03:04:10;;;;;;;17.35;15.65;;;21.20;99.90;;;;;;5058922;28;20096;-60
2021/07/14 03:06:38;;;;;;;20.52;16.23;;;21.20;99.90;;;;;;5059452;28;20024;-59
2021/07/14 03:09:04;;;;;;;20.70;16.55;;;21.20;99.90;;;;;;5054428;28;20491;-59
2021/07/14 03:11:40;;;;;;;20.48;16.67;;;21.10;99.90;;;;;;5062072;28;20032;-59
2021/07/14 03:14:08;;;;;;;17.60;15.77;;;21.10;99.90;;;;;;5052772;28;20449;-59
2021/07/14 03:16:35;;;;;;;21.83;17.17;;;21.10;99.90;;;;;;5044112;28;20033;-59
2021/07/14 03:19:02;;;;;;;22.88;16.63;;;21.10;99.90;;;;;;5054456;28;20044;-59
2021/07/14 03:21:32;;;;;;;18.98;16.52;;;21.00;99.90;;;;;;5052640;28;20072;-58
2021/07/14 03:24:04;;;;;;;21.90;18.40;;;21.00;99.90;;;;;;5053960;28;20513;-59
2021/07/14 03:26:30;;;;;;;19.75;16.95;;;21.00;99.90;;;;;;5044783;28;20030;-60
2021/07/14 03:28:55;;;;;;;18.67;16.67;;;20.90;99.90;;;;;;5056524;28;20036;-58
2021/07/14 03:31:21;;;;;;;21.15;17.17;;;20.90;99.90;;;;;;5047809;28;20029;-59
2021/07/14 03:33:47;;;;;;;19.30;17.35;;;20.90;99.90;;;;;;5047918;28;20029;-59
2021/07/14 03:36:15;;;;;;;20.40;17.52;;;21.00;99.90;;;;;;5054184;28;20024;-59
2021/07/14 03:38:41;;;;;;;22.52;17.48;;;20.90;99.90;;;;;;5045280;28;20018;-59
2021/07/14 03:41:07;;;;;;;21.02;17.50;;;20.70;99.90;;;;;;5057778;28;20364;-59
2021/07/14 03:43:34;;;;;;;20.30;18.17;;;20.70;99.90;;;;;;5047981;28;20491;-58
2021/07/14 03:46:01;;;;;;;19.45;17.40;;;20.70;99.90;;;;;;5056966;28;20021;-58
2021/07/14 03:48:30;;;;;;;18.45;16.55;;;20.70;99.90;;;;;;5046946;28;20071;-58
2021/07/14 03:50:57;;;;;;;21.35;17.58;;;20.70;99.90;;;;;;5043426;28;20384;-58
2021/07/14 03:53:23;;;;;;;20.15;17.92;;;20.70;99.90;;;;;;5051061;28;20111;-58
2021/07/14 03:55:50;;;;;;;21.63;16.52;;;20.70;99.90;;;;;;5045207;28;20028;-59
2021/07/14 03:58:18;;;;;;;24.10;17.48;;;20.70;99.90;;;;;;5056043;28;20021;-58
2021/07/14 04:00:45;;;;;;;20.17;16.13;;;20.80;99.90;;;;;;5047406;28;20037;-58
2021/07/14 04:03:10;;;;;;;21.77;16.85;;;20.80;99.90;;;;;;5050517;28;20024;-58
2021/07/14 04:05:44;;;;;;;16.17;14.48;;;20.80;99.90;;;;;;5030212;28;20034;-59
2021/07/14 04:08:12;;;;;;;17.08;15.27;;;20.80;99.90;;;;;;5034923;28;20429;-59
2021/07/14 04:10:39;;;;;;;21.05;16.70;;;20.80;99.90;;;;;;5037657;28;20031;-59
2021/07/14 04:13:05;;;;;;;18.73;16.02;;;20.70;99.90;;;;;;5048148;28;20017;-58
2021/07/14 04:15:31;;;;;;;18.23;15.90;;;20.70;99.90;;;;;;5044643;28;20079;-59
2021/07/14 04:17:57;;;;;;;19.58;16.38;;;20.70;99.90;;;;;;5054122;28;20071;-59
2021/07/14 04:20:22;;;;;;;18.88;16.88;;;20.70;99.90;;;;;;5059701;28;20067;-59
2021/07/14 04:22:48;;;;;;;17.83;15.73;;;20.70;99.90;;;;;;5058884;28;20013;-58
2021/07/14 04:25:15;;;;;;;19.40;15.38;;;20.70;99.90;;;;;;5049866;28;20017;-58
2021/07/14 04:27:40;;;;;;;21.25;17.25;;;20.60;99.90;;;;;;5038225;28;20044;-58
2021/07/14 04:30:06;;;;;;;20.25;17.75;;;20.70;99.90;;;;;;5040385;28;20049;-57
2021/07/14 04:32:32;;;;;;;19.27;17.27;;;20.60;99.90;;;;;;5032764;28;20025;-57
2021/07/14 04:34:57;;;;;;;19.42;16.75;;;20.70;99.90;;;;;;5035605;28;20556;-57
2021/07/14 04:37:23;;;;;;;23.17;18.33;;;20.70;99.90;;;;;;5037346;28;20025;-58
2021/07/14 04:39:48;;;;;;;20.15;17.27;;;20.70;99.90;;;;;;5035696;28;20037;-58
2021/07/14 04:42:14;;;;;;;18.73;16.63;;;20.80;99.90;;;;;;5042215;28;20111;-57
2021/07/14 04:44:49;;;;;;;20.33;18.08;;;20.80;99.90;;;;;;5053886;28;20035;-57
2021/07/14 04:47:15;;;;;;;21.73;17.60;;;20.80;99.90;;;;;;5043346;28;20110;-57
2021/07/14 04:49:40;;;;;;;22.58;17.38;;;20.90;99.90;;;;;;5031659;28;20691;-57
2021/07/14 04:52:06;;;;;;;19.38;17.15;;;20.90;99.90;;;;;;5053288;28;20483;-57
2021/07/14 04:54:31;;;;;;;21.67;17.10;;;21.00;99.90;;;;;;5038478;28;20045;-57
2021/07/14 04:56:57;;;;;;;19.63;15.10;;;21.00;99.90;;;;;;5041713;28;20029;-58
2021/07/14 04:59:24;;;;;;;15.70;14.00;;;21.10;99.90;;;;;;5048736;28;20029;-58
2021/07/14 05:01:49;;;;;;;18.77;14.50;;;21.10;99.90;;;;;;5033986;28;20029;-57
2021/07/14 05:04:15;;;;;;;20.10;14.68;;;21.30;99.90;;;;;;5037109;28;20021;-58
2021/07/14 05:06:40;;;;;;;16.00;13.73;;;21.30;99.90;;;;;;5051762;28;20482;-57
2021/07/14 05:09:07;;;;;;;18.80;15.68;;;21.40;99.90;;;;;;5042275;28;20320;-57
2021/07/14 05:11:32;;;;;;;16.17;14.48;;;21.40;99.90;;;;;;5041273;28;20140;-58
2021/07/14 05:13:58;;;;;;;19.08;15.07;;;21.50;99.90;;;;;;5036101;28;20256;-57
2021/07/14 05:16:23;;;;;;;17.17;13.52;;;21.50;99.90;;;;;;5052647;28;20036;-57
2021/07/14 05:18:49;;;;;;;16.85;13.32;;;21.40;99.90;;;;;;5057036;28;20530;-58
2021/07/14 05:21:14;;;;;;;14.80;12.95;;;21.40;99.90;;;;;;5060442;28;20470;-57
2021/07/14 05:23:40;;;;;;;15.43;13.27;;;21.30;99.90;;;;;;5060801;28;20373;-57
2021/07/14 05:26:05;;;;;;;18.02;13.75;;;21.20;99.90;;;;;;5061621;28;20086;-57
2021/07/14 05:28:31;;;;;;;18.42;13.05;;;21.20;99.90;;;;;;5062462;28;20039;-57
2021/07/14 05:30:56;;;;;;;18.15;12.40;;;21.10;99.90;;;;;;5058676;28;20103;-57
2021/07/14 05:33:22;;;;;;;14.95;12.35;;;21.10;99.90;;;;;;5057625;28;20028;-57
2021/07/14 05:35:48;;;;;;;14.27;11.60;;;21.10;99.90;;;;;;5058562;28;20036;-57
2021/07/14 05:38:19;;;;;;;14.68;11.88;;;21.00;99.90;;;;;;5061044;28;20036;-57
2021/07/14 05:40:49;;;;;;;15.90;12.82;;;21.00;99.90;;;;;;5057912;28;20033;-57
2021/07/14 05:43:15;;;;;;;20.57;15.00;;;21.00;99.90;;;;;;5057084;28;20024;-58
2021/07/14 05:45:40;;;;;;;16.73;13.73;;;21.00;99.90;;;;;;5035259;28;20117;-58
2021/07/14 05:48:06;;;;;;;18.17;14.75;;;21.10;99.90;;;;;;5038087;28;20025;-58
2021/07/14 05:50:32;;;;;;;17.10;13.00;;;21.10;99.90;;;;;;5038676;28;20056;-58
2021/07/14 05:52:57;;;;;;;19.45;13.45;;;21.20;99.90;;;;;;5037442;28;20022;-57
2021/07/14 05:55:22;;;;;;;17.73;13.45;;;21.20;99.90;;;;;;5037516;28;20031;-57
2021/07/14 05:57:51;;;;;;;17.33;12.27;;;21.30;99.90;;;;;;5037004;28;20099;-57
2021/07/14 06:00:17;;;;;;;15.10;11.75;;;21.30;99.90;;;;;;5038471;28;20025;-57
2021/07/14 06:02:43;;;;;;;16.00;12.02;;;21.40;99.90;;;;;;5036453;28;20160;-57
2021/07/14 06:05:10;;;;;;;13.38;10.77;;;21.60;99.90;;;;;;5038577;28;20558;-58
2021/07/14 06:07:35;;;;;;;12.95;10.88;;;21.60;99.90;;;;;;5036943;28;20387;-57
2021/07/14 06:10:01;;;;;;;16.45;11.73;;;21.80;99.90;;;;;;5037128;28;20017;-57
2021/07/14 06:12:27;;;;;;;20.05;12.40;;;21.80;99.90;;;;;;5038900;28;20497;-57
2021/07/14 06:14:52;;;;;;;16.85;11.48;;;21.90;99.90;;;;;;5034048;28;20029;-57
2021/07/14 06:17:18;;;;;;;16.05;11.40;;;21.90;99.90;;;;;;5045070;28;20316;-57
2021/07/14 06:19:44;;;;;;;17.27;11.27;;;21.90;99.90;;;;;;5042839;28;20049;-57
2021/07/14 06:22:10;;;;;;;14.25;11.80;;;21.80;99.90;;;;;;5045296;28;20232;-57
2021/07/14 06:24:38;;;;;;;18.33;12.13;;;21.80;99.90;;;;;;5030942;28;20029;-57
2021/07/14 06:27:03;;;;;;;18.38;10.80;;;21.70;99.90;;;;;;5032808;28;20041;-57
2021/07/14 06:29:29;;;;;;;16.42;10.93;;;21.80;99.90;;;;;;5032770;28;20030;-57
2021/07/14 06:31:54;;;;;;;18.90;12.35;;;21.80;99.90;;;;;;5032141;28;20030;-57
2021/07/14 06:34:20;;;;;;;14.73;10.43;;;21.80;99.90;;;;;;5030912;28;20406;-57
2021/07/14 06:36:45;;;;;;;12.98;9.65;;;21.90;99.90;;;;;;5033286;28;20104;-57
2021/07/14 06:39:11;;;;;;;11.32;9.73;;;21.90;99.90;;;;;;5032738;28;20037;-57
2021/07/14 06:41:37;;;;;;;17.42;10.98;;;22.00;99.90;;;;;;5031398;28;20036;-57
2021/07/14 06:44:04;;;;;;;13.98;10.02;;;22.10;99.90;;;;;;5032278;28;20033;-57
2021/07/14 06:46:30;;;;;;;11.93;9.25;;;22.20;99.90;;;;;;5031720;28;20064;-57
2021/07/14 06:48:56;;;;;;;13.60;8.82;;;22.20;99.90;;;;;;5032802;28;20013;-57
2021/07/14 06:51:21;;;;;;;11.77;8.52;;;22.40;99.90;;;;;;5035556;28;20044;-57
2021/07/14 06:53:47;;;;;;;13.48;8.60;;;22.40;99.90;;;;;;5044989;28;20414;-57
2021/07/14 06:56:13;;;;;;;15.82;8.52;;;22.80;99.90;;;;;;5048455;28;20149;-57
2021/07/14 06:58:40;;;;;;;11.90;8.65;;;23.00;99.90;;;;;;5032617;28;20029;-57
2021/07/14 07:01:09;;;;;;;11.60;9.02;;;23.00;99.90;;;;;;5048337;28;20032;-57
2021/07/14 07:03:36;;;;;;;11.80;8.67;;;23.20;99.90;;;;;;5051074;28;20403;-57
2021/07/14 07:06:05;;;;;;;14.32;10.82;;;23.40;99.90;;;;;;5038312;28;20487;-57
2021/07/14 07:08:34;;;;;;;11.73;9.27;;;23.70;99.90;;;;;;5057909;28;20025;-58
2021/07/14 07:11:01;;;;;;;9.55;8.52;;;23.80;99.90;;;;;;5037565;28;20502;-57
2021/07/14 07:13:27;;;;;;;10.82;9.20;;;23.70;99.90;;;;;;5042698;28;20438;-57
2021/07/14 07:15:53;;;;;;;13.60;9.70;;;23.80;99.90;;;;;;5046689;28;20534;-57
2021/07/14 07:18:21;;;;;;;9.90;8.77;;;23.80;99.90;;;;;;5064456;28;20170;-57
2021/07/14 07:20:48;;;;;;;14.23;9.48;;;23.70;99.90;;;;;;5039485;28;20037;-59
2021/07/14 07:23:14;;;;;;;11.85;9.32;;;23.70;99.90;;;;;;5062475;28;20394;-55
2021/07/14 07:25:40;;;;;;;10.90;9.80;;;23.70;99.90;;;;;;5060597;28;20028;-57
2021/07/14 07:28:12;;;;;;;11.43;9.05;;;23.70;99.90;;;;;;5062555;28;20026;-57
2021/07/14 07:30:38;;;;;;;13.35;9.43;;;23.80;99.90;;;;;;5055138;28;20035;-57
2021/07/14 07:33:03;;;;;;;10.70;9.50;;;23.90;99.90;;;;;;5058297;28;20029;-57
2021/07/14 07:35:29;;;;;;;15.13;10.32;;;24.00;99.90;;;;;;5057409;28;20118;-57
2021/07/14 07:37:55;;;;;;;12.73;8.80;;;24.00;99.90;;;;;;5058881;28;20028;-57
2021/07/14 07:40:21;;;;;;;15.25;9.23;;;24.00;99.90;;;;;;5056625;28;20021;-57
2021/07/14 07:42:46;;;;;;;11.27;9.68;;;24.00;99.90;;;;;;5061746;28;20031;-57
2021/07/14 07:45:12;;;;;;;13.52;9.60;;;23.90;99.90;;;;;;5058807;28;20017;-57
2021/07/14 07:47:38;;;;;;;11.95;9.52;;;23.70;99.90;;;;;;5052802;28;20025;-57
2021/07/14 07:50:04;;;;;;;10.77;9.27;;;23.70;99.90;;;;;;5034730;28;20036;-55
2021/07/14 07:52:30;;;;;;;12.13;10.05;;;23.70;99.90;;;;;;5054526;28;20020;-55
2021/07/14 07:54:56;;;;;;;14.13;10.75;;;23.60;99.90;;;;;;5043955;28;20479;-56
2021/07/14 07:57:22;;;;;;;12.40;9.48;;;23.50;99.90;;;;;;5041673;28;20032;-55
2021/07/14 07:59:48;;;;;;;12.30;10.18;;;23.40;99.90;;;;;;5043205;28;20027;-55
2021/07/14 08:02:14;;;;;;;16.02;10.80;;;23.40;99.90;;;;;;5036352;28;20111;-55
2021/07/14 08:04:39;;;;;;;21.15;11.70;;;23.50;99.90;;;;;;5037245;28;20448;-55
2021/07/14 08:07:05;;;;;;;14.73;10.40;;;23.30;99.90;;;;;;5036497;28;20025;-55
2021/07/14 08:09:30;;;;;;;11.73;9.98;;;23.50;99.90;;;;;;5032600;28;20056;-55
2021/07/14 08:11:56;;;;;;;12.90;9.60;;;23.90;99.90;;;;;;5035172;28;20029;-55
2021/07/14 08:14:21;;;;;;;13.27;8.88;;;24.40;99.90;;;;;;5037918;28;20501;-55
2021/07/14 08:16:47;;;;;;;13.60;9.43;;;24.10;99.90;;;;;;5035675;28;20029;-55
2021/07/14 08:19:12;;;;;;;12.05;9.50;;;24.00;99.90;;;;;;5039219;28;20038;-55
2021/07/14 08:21:39;;;;;;;11.23;8.80;;;23.90;99.90;;;;;;5035824;28;20113;-58
2021/07/14 08:24:05;;;;;;;9.80;8.68;;;23.80;99.90;;;;;;5034060;28;20025;-55
2021/07/14 08:26:30;;;;;;;12.85;8.32;;;23.80;99.90;;;;;;5037417;28;20029;-55
2021/07/14 08:28:56;;;;;;;12.60;9.63;;;24.10;99.90;;;;;;5034168;28;20020;-55
2021/07/14 08:31:23;;;;;;;12.45;8.82;;;24.00;99.90;;;;;;5049155;28;20061;-55
2021/07/14 08:33:49;;;;;;;9.57;8.57;;;24.00;99.90;;;;;;5045021;28;20050;-55
2021/07/14 08:36:14;;;;;;;11.35;8.43;;;24.10;99.90;;;;;;5040421;28;20055;-55
2021/07/14 08:38:40;;;;;;;13.95;8.70;;;24.10;99.90;;;;;;5043885;28;20018;-55
2021/07/14 08:41:09;;;;;;;13.15;9.15;;;23.80;99.90;;;;;;5035096;28;20034;-55
2021/07/14 08:43:36;;;;;;;10.20;8.93;;;23.80;99.90;;;;;;5031908;28;20022;-56
2021/07/14 08:46:02;;;;;;;15.73;10.15;;;23.80;99.90;;;;;;5039396;28;20422;-56
2021/07/14 08:48:28;;;;;;;11.23;8.50;;;23.90;99.90;;;;;;5032283;28;20022;-55
2021/07/14 08:50:59;;;;;;;15.32;10.27;;;23.90;99.90;;;;;;5036618;28;20048;-55
2021/07/14 08:53:26;;;;;;;13.38;9.48;;;24.00;99.90;;;;;;5034825;28;20092;-55
2021/07/14 08:55:54;;;;;;;15.43;9.38;;;23.70;99.90;;;;;;5042064;28;20060;-55
2021/07/14 08:58:22;;;;;;;12.20;9.73;;;23.60;99.90;;;;;;5055037;28;20052;-55
2021/07/14 09:00:49;;;;;;;14.68;9.95;;;23.40;99.90;;;;;;5042725;28;20033;-55
2021/07/14 09:03:15;;;;;;;10.55;9.38;;;23.40;99.90;;;;;;5039813;28;20028;-55
2021/07/14 09:05:40;;;;;;;12.13;10.15;;;23.30;99.90;;;;;;5040157;28;20028;-55
2021/07/14 09:08:06;;;;;;;11.27;10.07;;;23.20;99.90;;;;;;5044253;28;20026;-55
2021/07/14 09:10:32;;;;;;;10.73;9.60;;;23.20;99.90;;;;;;5038253;28;20021;-55
2021/07/14 09:12:59;;;;;;;13.82;9.95;;;23.10;99.90;;;;;;5036292;28;20056;-55
2021/07/14 09:15:27;;;;;;;12.20;10.18;;;23.20;99.90;;;;;;5034496;28;20057;-55
2021/07/14 09:17:56;;;;;;;18.02;11.38;;;23.30;99.90;;;;;;5035273;28;20022;-55
2021/07/14 09:20:25;;;;;;;13.65;10.25;;;23.40;99.90;;;;;;5036101;28;20022;-55
2021/07/14 09:23:14;;;;;;;12.23;9.82;;;23.50;99.90;;;;;;5035016;28;20064;-56
2021/07/14 09:25:51;;;;;;;11.40;10.23;;;23.80;99.90;;;;;;5033632;28;20052;-56
2021/07/14 09:28:18;;;;;;;11.27;9.70;;;24.00;99.90;;;;;;5034990;28;20125;-56
2021/07/14 09:30:45;;;;;;;13.32;9.45;;;24.10;99.90;;;;;;5045977;28;20538;-56
2021/07/14 09:33:14;;;;;;;11.43;9.35;;;24.20;99.90;;;;;;5036511;28;20108;-57
2021/07/14 09:35:46;;;;;;;10.73;9.20;;;24.30;99.90;;;;;;5036946;28;20021;-56
2021/07/14 09:38:17;;;;;;;10.57;9.38;;;24.30;99.90;;;;;;5039527;28;20040;-56
2021/07/14 09:40:47;;;;;;;10.25;8.60;;;24.50;99.90;;;;;;5038030;28;20378;-56
2021/07/14 09:43:18;;;;;;;12.05;9.38;;;24.50;99.90;;;;;;5037317;28;20047;-57
2021/07/14 09:45:52;;;;;;;12.35;8.90;;;24.40;99.90;;;;;;5036628;28;20045;-56
2021/07/14 09:48:20;;;;;;;10.85;8.95;;;24.50;99.90;;;;;;5044384;28;20024;-56
2021/07/14 09:50:55;;;;;;;10.68;9.30;;;24.50;99.90;;;;;;5053809;28;20053;-56
2021/07/14 09:53:23;;;;;;;17.67;11.40;;;24.60;99.90;;;;;;5034813;28;20444;-56
2021/07/14 09:55:51;;;;;;;15.52;12.80;;;24.40;99.90;;;;;;5037760;28;20509;-56
2021/07/14 09:58:28;;;;;;;20.63;14.98;;;24.40;99.90;;;;;;5036991;28;20038;-56
2021/07/14 10:00:59;;;;;;;18.67;15.65;;;24.40;99.90;;;;;;5037449;28;20081;-56
2021/07/14 10:03:27;;;;;;;21.58;15.38;;;24.20;99.90;;;;;;5035615;28;20024;-56
2021/07/14 10:06:11;;;;;;;21.60;16.70;;;23.90;99.90;;;;;;5033717;28;20193;-56
2021/07/14 10:08:39;;;;;;;26.02;18.63;;;23.90;99.90;;;;;;5048533;28;20114;-56
2021/07/14 10:11:24;;;;;;;32.95;18.25;;;23.70;99.90;;;;;;5050743;28;20052;-56
2021/07/14 10:14:04;;;;;;;21.08;17.02;;;23.60;99.90;;;;;;5048902;28;20502;-56
2021/07/14 10:16:38;;;;;;;21.30;15.77;;;23.60;99.90;;;;;;5042785;28;20462;-56
2021/07/14 10:19:16;;;;;;;21.10;16.63;;;23.70;99.90;;;;;;5059707;28;20037;-56
2021/07/14 10:21:47;;;;;;;28.10;16.50;;;23.60;99.90;;;;;;5042618;28;20033;-56
2021/07/14 10:24:15;;;;;;;21.83;17.17;;;23.40;99.90;;;;;;5046823;28;20020;-57
2021/07/14 10:26:44;;;;;;;21.95;16.52;;;23.30;99.90;;;;;;5062093;28;20402;-58
2021/07/14 10:29:10;;;;;;;25.60;17.20;;;23.30;99.90;;;;;;5063082;28;20618;-57
2021/07/14 10:31:38;;;;;;;22.67;14.55;;;23.40;99.90;;;;;;5050946;28;20029;-57
2021/07/14 10:34:08;;;;;;;23.25;14.48;;;23.30;99.90;;;;;;5039438;28;20391;-57
2021/07/14 10:36:36;;;;;;;25.15;14.98;;;23.20;99.90;;;;;;5036232;28;20030;-57
2021/07/14 10:39:08;;;;;;;22.23;15.52;;;23.00;99.90;;;;;;5036924;28;20029;-57
2021/07/14 10:41:34;;;;;;;21.20;14.02;;;22.80;99.90;;;;;;5037795;28;20405;-57
2021/07/14 10:44:00;;;;;;;18.25;13.95;;;22.90;99.90;;;;;;5035503;28;20037;-57
2021/07/14 10:46:28;;;;;;;18.15;13.43;;;23.00;99.90;;;;;;5036263;28;20050;-57
2021/07/14 10:48:56;;;;;;;20.25;13.75;;;23.20;99.90;;;;;;5034840;28;20041;-56
2021/07/14 10:51:23;;;;;;;20.27;13.77;;;23.10;99.90;;;;;;5040629;28;20141;-56
2021/07/14 10:53:52;;;;;;;19.30;13.48;;;23.00;99.90;;;;;;5035307;28;20029;-57
2021/07/14 10:56:19;;;;;;;21.63;14.25;;;23.10;99.90;;;;;;5044455;28;20035;-57
2021/07/14 10:58:46;;;;;;;15.90;13.60;;;23.30;99.90;;;;;;5032978;28;20529;-57
2021/07/14 11:01:12;;;;;;;24.90;12.80;;;23.20;99.90;;;;;;5037640;28;20047;-57
2021/07/14 11:03:44;;;;;;;15.35;12.70;;;23.20;99.90;;;;;;5048584;28;20013;-57
2021/07/14 11:06:13;;;;;;;20.00;12.40;;;23.30;99.90;;;;;;5042834;28;20075;-57
2021/07/14 11:08:50;;;;;;;19.10;13.88;;;23.40;99.90;;;;;;5044182;28;20238;-57
2021/07/14 11:11:23;;;;;;;18.52;14.05;;;23.50;99.90;;;;;;5039611;28;20093;-57
2021/07/14 11:14:03;;;;;;;21.35;14.02;;;23.30;99.90;;;;;;5047463;28;20021;-57
2021/07/14 11:16:34;;;;;;;15.55;13.82;;;23.30;99.90;;;;;;5044954;28;20549;-57
2021/07/14 11:19:09;;;;;;;16.20;13.15;;;23.20;99.90;;;;;;5057903;28;20044;-56
2021/07/14 11:21:51;;;;;;;18.20;14.23;;;23.10;99.90;;;;;;5039476;28;20045;-56
2021/07/14 11:24:53;;;;;;;20.98;14.23;;;23.20;99.90;;;;;;5043440;28;20025;-56
2021/07/14 11:27:18;;;;;;;16.50;13.63;;;23.10;99.90;;;;;;5031371;28;20028;-56
2021/07/14 11:29:54;;;;;;;22.25;13.90;;;23.10;99.90;;;;;;5036706;28;20033;-56
2021/07/14 11:32:42;;;;;;;20.30;14.63;;;23.00;99.90;;;;;;5041079;28;20370;-56
2021/07/14 11:35:17;;;;;;;16.17;13.02;;;22.90;99.90;;;;;;5042271;28;20025;-56
2021/07/14 11:37:54;;;;;;;16.88;13.55;;;22.70;99.90;;;;;;5042392;28;20028;-56
2021/07/14 11:40:25;;;;;;;15.52;12.45;;;22.70;99.90;;;;;;5048441;28;20367;-56
2021/07/14 11:42:59;;;;;;;16.90;12.48;;;22.80;99.90;;;;;;5053502;28;20052;-56
2021/07/14 11:45:33;;;;;;;14.55;11.55;;;23.00;99.90;;;;;;5035991;28;20037;-56
2021/07/14 11:48:08;;;;;;;17.45;12.65;;;23.10;99.90;;;;;;5038017;28;20036;-56
2021/07/14 11:50:42;;;;;;;13.55;11.63;;;23.10;99.90;;;;;;5038190;28;20076;-56
2021/07/14 11:53:31;;;;;;;18.92;13.90;;;23.10;99.90;;;;;;5039619;28;20021;-56
2021/07/14 11:56:31;;;;;;;15.18;12.25;;;23.00;99.90;;;;;;5036539;28;20479;-56
2021/07/14 11:58:59;;;;;;;;;;;23.10;99.90;;;;;;5040116;28;20037;-56
2021/07/14 12:01:24;;;;;;;17.42;14.10;;;23.00;99.90;;;;;;5037875;28;19913;-56
2021/07/14 12:04:02;;;;;;;16.05;11.70;;;23.00;99.90;;;;;;5039254;28;20017;-56
2021/07/14 12:06:38;;;;;;;20.58;13.10;;;22.90;99.90;;;;;;5035154;28;20029;-56
2021/07/14 12:09:23;;;;;;;16.15;13.32;;;22.80;99.90;;;;;;5037601;28;20383;-56
2021/07/14 12:11:58;;;;;;;17.60;12.90;;;22.70;99.90;;;;;;5037626;28;20466;-56
2021/07/14 12:14:30;;;;;;;13.77;12.35;;;22.60;99.90;;;;;;5034364;28;20030;-56
2021/07/14 12:16:58;;;;;;;15.38;11.98;;;22.70;99.90;;;;;;5035023;28;20491;-57
2021/07/14 12:19:26;;;;;;;15.50;13.45;;;22.70;99.90;;;;;;5040779;28;20061;-56
2021/07/14 12:21:53;;;;;;;15.40;13.18;;;22.80;99.90;;;;;;5039811;28;20500;-56
2021/07/14 12:24:29;;;;;;;17.65;13.52;;;22.80;99.90;;;;;;5038531;28;20020;-57
2021/07/14 12:27:02;;;;;;;18.30;13.63;;;23.00;99.90;;;;;;5041801;28;20030;-57
2021/07/14 12:29:28;;;;;;;17.02;14.05;;;23.20;99.90;;;;;;5042127;28;20017;-57
2021/07/14 12:31:54;;;;;;;20.45;15.80;;;23.30;99.90;;;;;;5047484;28;20432;-57
2021/07/14 12:34:27;;;;;;;19.48;15.57;;;23.20;99.90;;;;;;5046162;28;20021;-57
2021/07/14 12:36:54;;;;;;;19.33;14.38;;;23.20;99.90;;;;;;5044713;28;20510;-57
2021/07/14 12:39:31;;;;;;;18.98;14.93;;;23.10;99.90;;;;;;5046759;28;20047;-57
2021/07/14 12:41:59;;;;;;;27.02;19.95;;;23.30;99.90;;;;;;5044874;28;20517;-57
2021/07/14 12:44:26;;;;;;;30.15;19.58;;;23.70;99.90;;;;;;5034363;28;20029;-57